Ashland, Kentucky
Current Conditions -  °F | °C
As of 7:55 PM on Sunday 23 Nov 2014 (Local Time) from KDWU Reporting Station
Overcast Overcast  
Wind Chill: 54°   Ceiling: 5000
Heat Index: 54°   Visibility: 5mi
Dew Point: 48°   Wind: 7mph
Humidity: 82%   Direction: 130°SE
Pressure: 29.55"   Gusts: NA
Location:  38.48°N, 82.64°W
Report Text: KDWU 240055Z AUTO 13006KT 5SM FEW037 BKN050 OVC070 12/09 A2955 RMK AO1
Loading
Personal Weather Stations






























Interactive Weather Map New forecast layout! Learn more

10-Day Weather Forecast

Advertisements
Track Severe Weather on mobile